sensor_id;sensor_type;location;lat;lon;timestamp;P1;durP1;ratioP1;P2;durP2;ratioP2
18267;SDS011;9260;49.998;19.880;2022-09-01T00:00:11;231.20;;;89.23;;
18267;SDS011;9260;49.998;19.880;2022-09-01T00:10:21;229.27;;;86.73;;
18267;SDS011;9260;49.998;19.880;2022-09-01T00:20:26;230.97;;;88.10;;
18267;SDS011;9260;49.998;19.880;2022-09-01T00:30:33;232.30;;;88.30;;
18267;SDS011;9260;49.998;19.880;2022-09-01T00:40:37;226.70;;;87.63;;
18267;SDS011;9260;49.998;19.880;2022-09-01T00:50:43;245.50;;;87.27;;
18267;SDS011;9260;49.998;19.880;2022-09-01T01:00:55;226.80;;;87.07;;
18267;SDS011;9260;49.998;19.880;2022-09-01T01:11:02;228.30;;;86.33;;
18267;SDS011;9260;49.998;19.880;2022-09-01T01:21:12;228.27;;;86.57;;
18267;SDS011;9260;49.998;19.880;2022-09-01T01:31:39;230.23;;;86.17;;
18267;SDS011;9260;49.998;19.880;2022-09-01T01:41:44;227.67;;;86.13;;
18267;SDS011;9260;49.998;19.880;2022-09-01T01:51:52;230.63;;;88.40;;
18267;SDS011;9260;49.998;19.880;2022-09-01T02:02:04;231.90;;;87.43;;
18267;SDS011;9260;49.998;19.880;2022-09-01T02:12:12;232.43;;;88.17;;
18267;SDS011;9260;49.998;19.880;2022-09-01T02:22:19;227.37;;;87.00;;
18267;SDS011;9260;49.998;19.880;2022-09-01T02:32:25;226.13;;;86.63;;
18267;SDS011;9260;49.998;19.880;2022-09-01T02:42:29;229.40;;;85.70;;
18267;SDS011;9260;49.998;19.880;2022-09-01T02:52:35;225.97;;;85.97;;
18267;SDS011;9260;49.998;19.880;2022-09-01T03:02:41;231.77;;;89.20;;
18267;SDS011;9260;49.998;19.880;2022-09-01T03:12:47;227.67;;;85.13;;
18267;SDS011;9260;49.998;19.880;2022-09-01T03:22:51;226.20;;;85.57;;
18267;SDS011;9260;49.998;19.880;2022-09-01T03:32:59;228.67;;;87.50;;
18267;SDS011;9260;49.998;19.880;2022-09-01T03:43:06;229.47;;;91.67;;
18267;SDS011;9260;49.998;19.880;2022-09-01T03:53:18;230.57;;;91.57;;
18267;SDS011;9260;49.998;19.880;2022-09-01T04:03:26;229.20;;;89.80;;
18267;SDS011;9260;49.998;19.880;2022-09-01T04:13:36;224.47;;;87.97;;
18267;SDS011;9260;49.998;19.880;2022-09-01T04:23:43;224.10;;;85.87;;
18267;SDS011;9260;49.998;19.880;2022-09-01T04:33:49;224.03;;;85.27;;
18267;SDS011;9260;49.998;19.880;2022-09-01T04:43:55;226.83;;;88.17;;
18267;SDS011;9260;49.998;19.880;2022-09-01T04:54:02;225.40;;;89.37;;
18267;SDS011;9260;49.998;19.880;2022-09-01T05:04:14;228.23;;;86.33;;
18267;SDS011;9260;49.998;19.880;2022-09-01T05:14:22;230.07;;;89.87;;
18267;SDS011;9260;49.998;19.880;2022-09-01T05:24:27;230.77;;;89.00;;
18267;SDS011;9260;49.998;19.880;2022-09-01T05:34:37;219.33;;;87.23;;
18267;SDS011;9260;49.998;19.880;2022-09-01T05:44:44;225.70;;;90.50;;
18267;SDS011;9260;49.998;19.880;2022-09-01T05:54:54;229.20;;;90.27;;
18267;SDS011;9260;49.998;19.880;2022-09-01T06:05:02;228.63;;;96.03;;
18267;SDS011;9260;49.998;19.880;2022-09-01T06:15:10;234.70;;;93.67;;
18267;SDS011;9260;49.998;19.880;2022-09-01T06:25:21;246.23;;;112.03;;
18267;SDS011;9260;49.998;19.880;2022-09-01T06:35:28;231.67;;;96.53;;
18267;SDS011;9260;49.998;19.880;2022-09-01T06:45:33;232.43;;;98.33;;
18267;SDS011;9260;49.998;19.880;2022-09-01T06:55:46;243.17;;;109.97;;
18267;SDS011;9260;49.998;19.880;2022-09-01T07:05:52;231.53;;;106.90;;
18267;SDS011;9260;49.998;19.880;2022-09-01T07:16:30;234.40;;;111.33;;
18267;SDS011;9260;49.998;19.880;2022-09-01T07:26:54;233.03;;;113.17;;
18267;SDS011;9260;49.998;19.880;2022-09-01T07:37:11;234.75;;;118.82;;
18267;SDS011;9260;49.998;19.880;2022-09-01T07:47:37;237.45;;;119.30;;
18267;SDS011;9260;49.998;19.880;2022-09-01T07:57:58;241.20;;;125.32;;
18267;SDS011;9260;49.998;19.880;2022-09-01T08:08:03;239.85;;;130.73;;
18267;SDS011;9260;49.998;19.880;2022-09-01T08:18:21;254.68;;;135.63;;
18267;SDS011;9260;49.998;19.880;2022-09-01T08:28:25;235.48;;;130.20;;
18267;SDS011;9260;49.998;19.880;2022-09-01T08:38:31;259.92;;;146.88;;
18267;SDS011;9260;49.998;19.880;2022-09-01T08:48:36;244.45;;;146.80;;
18267;SDS011;9260;49.998;19.880;2022-09-01T08:59:10;240.30;;;140.68;;
18267;SDS011;9260;49.998;19.880;2022-09-01T09:09:36;228.82;;;141.50;;
18267;SDS011;9260;49.998;19.880;2022-09-01T09:19:56;230.68;;;147.63;;
18267;SDS011;9260;49.998;19.880;2022-09-01T09:30:00;219.45;;;144.98;;
18267;SDS011;9260;49.998;19.880;2022-09-01T09:40:12;210.95;;;147.02;;
18267;SDS011;9260;49.998;19.880;2022-09-01T09:50:21;209.85;;;150.15;;
18267;SDS011;9260;49.998;19.880;2022-09-01T10:00:29;210.82;;;140.75;;
18267;SDS011;9260;49.998;19.880;2022-09-01T10:10:36;211.68;;;136.90;;
18267;SDS011;9260;49.998;19.880;2022-09-01T10:20:45;231.85;;;141.50;;
18267;SDS011;9260;49.998;19.880;2022-09-01T10:30:56;247.10;;;133.80;;
18267;SDS011;9260;49.998;19.880;2022-09-01T10:41:02;237.45;;;128.07;;
18267;SDS011;9260;49.998;19.880;2022-09-01T11:02:11;228.93;;;130.15;;
18267;SDS011;9260;49.998;19.880;2022-09-01T11:12:40;226.18;;;136.27;;
18267;SDS011;9260;49.998;19.880;2022-09-01T11:23:02;224.50;;;151.23;;
18267;SDS011;9260;49.998;19.880;2022-09-01T11:33:19;231.88;;;153.20;;
18267;SDS011;9260;49.998;19.880;2022-09-01T11:44:09;231.43;;;149.05;;
18267;SDS011;9260;49.998;19.880;2022-09-01T11:54:17;233.38;;;146.15;;
18267;SDS011;9260;49.998;19.880;2022-09-01T12:04:23;237.10;;;140.15;;
18267;SDS011;9260;49.998;19.880;2022-09-01T12:14:32;229.73;;;146.18;;
18267;SDS011;9260;49.998;19.880;2022-09-01T12:24:57;226.80;;;155.95;;
18267;SDS011;9260;49.998;19.880;2022-09-01T12:35:02;233.70;;;167.85;;
18267;SDS011;9260;49.998;19.880;2022-09-01T12:45:13;214.77;;;161.98;;
18267;SDS011;9260;49.998;19.880;2022-09-01T12:55:53;203.82;;;153.60;;
18267;SDS011;9260;49.998;19.880;2022-09-01T13:06:20;222.88;;;157.10;;
18267;SDS011;9260;49.998;19.880;2022-09-01T13:16:23;229.40;;;139.85;;
18267;SDS011;9260;49.998;19.880;2022-09-01T13:26:28;241.52;;;141.90;;
18267;SDS011;9260;49.998;19.880;2022-09-01T13:36:32;241.85;;;130.23;;
18267;SDS011;9260;49.998;19.880;2022-09-01T13:46:48;238.68;;;118.35;;
18267;SDS011;9260;49.998;19.880;2022-09-01T13:57:11;237.32;;;122.70;;
18267;SDS011;9260;49.998;19.880;2022-09-01T14:07:18;243.95;;;113.88;;
18267;SDS011;9260;49.998;19.880;2022-09-01T14:17:22;248.07;;;119.70;;
18267;SDS011;9260;49.998;19.880;2022-09-01T14:27:28;251.50;;;119.93;;
18267;SDS011;9260;49.998;19.880;2022-09-01T14:37:32;235.80;;;113.40;;
18267;SDS011;9260;49.998;19.880;2022-09-01T14:47:38;233.67;;;106.50;;
18267;SDS011;9260;49.998;19.880;2022-09-01T14:57:41;242.67;;;118.93;;
18267;SDS011;9260;49.998;19.880;2022-09-01T15:07:47;236.40;;;110.17;;
18267;SDS011;9260;49.998;19.880;2022-09-01T15:17:51;239.10;;;105.60;;
18267;SDS011;9260;49.998;19.880;2022-09-01T15:27:57;241.53;;;108.43;;
18267;SDS011;9260;49.998;19.880;2022-09-01T15:38:02;244.37;;;113.37;;
18267;SDS011;9260;49.998;19.880;2022-09-01T15:48:09;250.37;;;110.10;;
18267;SDS011;9260;49.998;19.880;2022-09-01T15:58:14;244.60;;;103.13;;
18267;SDS011;9260;49.998;19.880;2022-09-01T16:08:21;235.70;;;100.77;;
18267;SDS011;9260;49.998;19.880;2022-09-01T16:18:27;240.83;;;107.63;;
18267;SDS011;9260;49.998;19.880;2022-09-01T16:28:37;272.17;;;105.67;;
18267;SDS011;9260;49.998;19.880;2022-09-01T16:38:46;259.20;;;107.97;;
18267;SDS011;9260;49.998;19.880;2022-09-01T16:48:55;243.60;;;99.63;;
18267;SDS011;9260;49.998;19.880;2022-09-01T16:59:20;244.77;;;100.30;;
18267;SDS011;9260;49.998;19.880;2022-09-01T17:09:36;246.20;;;104.23;;
18267;SDS011;9260;49.998;19.880;2022-09-01T17:19:43;241.90;;;100.30;;
18267;SDS011;9260;49.998;19.880;2022-09-01T17:29:54;239.23;;;99.83;;
18267;SDS011;9260;49.998;19.880;2022-09-01T17:40:01;235.30;;;98.03;;
18267;SDS011;9260;49.998;19.880;2022-09-01T17:50:16;239.33;;;100.30;;
18267;SDS011;9260;49.998;19.880;2022-09-01T18:00:29;240.37;;;98.90;;
18267;SDS011;9260;49.998;19.880;2022-09-01T18:10:44;236.90;;;96.90;;
18267;SDS011;9260;49.998;19.880;2022-09-01T18:20:54;238.27;;;98.07;;
18267;SDS011;9260;49.998;19.880;2022-09-01T18:31:09;238.60;;;98.47;;
18267;SDS011;9260;49.998;19.880;2022-09-01T18:41:41;230.93;;;97.23;;
18267;SDS011;9260;49.998;19.880;2022-09-01T18:52:02;239.70;;;95.47;;
18267;SDS011;9260;49.998;19.880;2022-09-01T19:02:25;231.73;;;95.13;;
18267;SDS011;9260;49.998;19.880;2022-09-01T19:12:42;236.17;;;96.70;;
18267;SDS011;9260;49.998;19.880;2022-09-01T19:22:58;248.50;;;102.33;;
18267;SDS011;9260;49.998;19.880;2022-09-01T19:33:10;241.30;;;93.00;;
18267;SDS011;9260;49.998;19.880;2022-09-01T19:43:17;231.37;;;91.60;;
18267;SDS011;9260;49.998;19.880;2022-09-01T19:53:28;223.50;;;91.17;;
18267;SDS011;9260;49.998;19.880;2022-09-01T20:03:44;225.37;;;91.70;;
18267;SDS011;9260;49.998;19.880;2022-09-01T20:13:57;230.10;;;95.83;;
18267;SDS011;9260;49.998;19.880;2022-09-01T20:24:18;229.63;;;92.70;;
18267;SDS011;9260;49.998;19.880;2022-09-01T20:34:36;233.77;;;92.87;;
18267;SDS011;9260;49.998;19.880;2022-09-01T20:44:49;228.90;;;87.70;;
18267;SDS011;9260;49.998;19.880;2022-09-01T20:55:03;228.80;;;86.57;;
18267;SDS011;9260;49.998;19.880;2022-09-01T21:05:22;227.80;;;86.00;;
18267;SDS011;9260;49.998;19.880;2022-09-01T21:15:44;230.40;;;88.73;;
18267;SDS011;9260;49.998;19.880;2022-09-01T21:25:55;227.27;;;84.53;;
18267;SDS011;9260;49.998;19.880;2022-09-01T21:36:02;228.83;;;86.80;;
18267;SDS011;9260;49.998;19.880;2022-09-01T21:46:06;225.33;;;83.00;;
18267;SDS011;9260;49.998;19.880;2022-09-01T21:56:12;227.30;;;85.53;;
18267;SDS011;9260;49.998;19.880;2022-09-01T22:06:16;223.17;;;85.27;;
18267;SDS011;9260;49.998;19.880;2022-09-01T22:16:25;228.90;;;86.13;;
18267;SDS011;9260;49.998;19.880;2022-09-01T22:26:35;224.10;;;85.80;;
18267;SDS011;9260;49.998;19.880;2022-09-01T22:36:42;223.93;;;83.13;;
18267;SDS011;9260;49.998;19.880;2022-09-01T22:46:48;222.97;;;85.00;;
18267;SDS011;9260;49.998;19.880;2022-09-01T22:56:54;229.50;;;89.63;;
18267;SDS011;9260;49.998;19.880;2022-09-01T23:07:00;233.70;;;90.50;;
18267;SDS011;9260;49.998;19.880;2022-09-01T23:17:05;228.17;;;84.63;;
18267;SDS011;9260;49.998;19.880;2022-09-01T23:27:09;224.53;;;84.10;;
18267;SDS011;9260;49.998;19.880;2022-09-01T23:37:14;230.97;;;90.90;;
18267;SDS011;9260;49.998;19.880;2022-09-01T23:47:18;230.27;;;89.83;;
18267;SDS011;9260;49.998;19.880;2022-09-01T23:57:23;229.33;;;83.77;;
